Time;durP1;ratioP1;P1;durP2;ratioP2;P2;SDS_P1;SDS_P2;PMS_P1;PMS_P2;Temp;Humidity;BMP_temperature;BMP_pressure;BME280_temperature;BME280_humidity;BME280_pressure;Samples;Min_cycle;Max_cycle;Signal;HPM_P1;HPM_P2
2022/01/26 00:07:12;;;;;;;85.10;37.10;;;;;;;;;;5092711;28;20544;-91
2022/01/26 00:09:39;;;;;;;90.40;36.83;;;;;;;;;;5090777;28;20044;-91
2022/01/26 00:12:05;;;;;;;87.35;35.63;;;;;;;;;;5072805;28;20050;-91
2022/01/26 00:14:31;;;;;;;78.40;35.17;;;;;;;;;;5056963;28;20044;-91
2022/01/26 00:17:00;;;;;;;76.82;33.38;;;;;;;;;;5072938;28;20480;-91
2022/01/26 00:19:41;;;;;;;89.75;36.50;;;;;;;;;;5073254;28;20482;-91
2022/01/26 00:22:08;;;;;;;75.38;34.47;;;;;;;;;;5107099;28;20178;-91
2022/01/26 00:29:39;;;;;;;84.60;35.28;;;;;;;;;;5106431;28;20040;-90
2022/01/26 00:40:22;;;;;;;85.90;34.95;;;;;;;;;;5106559;28;20462;-91
2022/01/26 00:42:51;;;;;;;83.35;34.05;;;;;;;;;;5089493;28;20036;-91
2022/01/26 00:45:21;;;;;;;81.82;35.17;;;;;;;;;;5072217;28;20040;-91
2022/01/26 00:47:48;;;;;;;83.85;33.83;;;;;;;;;;5106320;28;20505;-91
2022/01/26 00:50:15;;;;;;;83.35;35.92;;;;;;;;;;5089605;28;20081;-90
2022/01/26 00:52:44;;;;;;;89.63;36.60;;;;;;;;;;5072370;28;20050;-91
2022/01/26 00:55:12;;;;;;;89.45;35.00;;;;;;;;;;5106498;28;20074;-90
2022/01/26 00:57:38;;;;;;;87.80;36.15;;;;;;;;;;5088588;28;20411;-91
2022/01/26 01:00:07;;;;;;;79.53;35.05;;;;;;;;;;5054921;28;20119;-89
2022/01/26 01:02:33;;;;;;;89.07;35.70;;;;;;;;;;5072074;28;20493;-91
2022/01/26 01:05:04;;;;;;;81.35;36.08;;;;;;;;;;5105934;28;20416;-90
2022/01/26 01:07:35;;;;;;;90.22;36.10;;;;;;;;;;5105629;28;20063;-89
2022/01/26 01:10:01;;;;;;;87.72;35.47;;;;;;;;;;5072337;28;20048;-91
2022/01/26 01:12:28;;;;;;;79.95;33.75;;;;;;;;;;5055429;28;20071;-91
2022/01/26 01:14:54;;;;;;;82.25;33.92;;;;;;;;;;5088312;28;20036;-90
2022/01/26 01:17:26;;;;;;;88.03;35.15;;;;;;;;;;5105629;28;20057;-90
2022/01/26 01:20:21;;;;;;;88.78;36.17;;;;;;;;;;5088616;28;20096;-92
2022/01/26 01:28:16;;;;;;;81.97;36.08;;;;;;;;;;5105479;28;20092;-91
2022/01/26 01:30:46;;;;;;;82.78;35.63;;;;;;;;;;5088215;28;20392;-90
2022/01/26 01:33:20;;;;;;;81.40;35.35;;;;;;;;;;5054357;28;20098;-90
2022/01/26 01:35:47;;;;;;;79.10;34.47;;;;;;;;;;5055101;28;20046;-91
2022/01/26 01:38:17;;;;;;;85.32;35.83;;;;;;;;;;5088817;28;20093;-91
2022/01/26 01:40:45;;;;;;;73.88;33.30;;;;;;;;;;5071404;28;20047;-90
2022/01/26 01:43:12;;;;;;;84.32;35.88;;;;;;;;;;5071589;28;20044;-90
2022/01/26 01:45:42;;;;;;;81.70;35.70;;;;;;;;;;5071539;28;20094;-91
2022/01/26 01:48:08;;;;;;;85.57;35.25;;;;;;;;;;5053765;28;20081;-90
2022/01/26 01:50:40;;;;;;;76.72;33.55;;;;;;;;;;5089111;28;20375;-90
2022/01/26 01:53:07;;;;;;;83.85;35.53;;;;;;;;;;5105015;28;20073;-90
2022/01/26 01:55:33;;;;;;;84.97;36.67;;;;;;;;;;5054887;28;20074;-90
2022/01/26 01:58:00;;;;;;;83.40;36.03;;;;;;;;;;5075283;28;20043;-90
2022/01/26 02:00:28;;;;;;;82.88;35.30;;;;;;;;;;5076244;28;20616;-91
2022/01/26 02:02:54;;;;;;;83.57;36.35;;;;;;;;;;5054823;28;20415;-91
2022/01/26 02:05:20;;;;;;;87.68;36.88;;;;;;;;;;5071142;28;20046;-90
2022/01/26 02:07:46;;;;;;;84.47;36.13;;;;;;;;;;5070844;28;20039;-91
2022/01/26 02:10:13;;;;;;;83.45;35.80;;;;;;;;;;5087186;28;20044;-91
2022/01/26 02:12:44;;;;;;;78.63;35.55;;;;;;;;;;5104378;28;20040;-91
2022/01/26 02:15:40;;;;;;;81.05;35.30;;;;;;;;;;5070693;28;20039;-90
2022/01/26 02:56:30;;;;;;;80.65;35.22;;;;;;;;;;5088794;28;20154;-89
2022/01/26 03:01:46;;;;;;;93.25;36.08;;;;;;;;;;5108357;28;20177;-89
2022/01/26 03:04:22;;;;;;;88.18;35.50;;;;;;;;;;5073839;28;20047;-89
2022/01/26 03:07:00;;;;;;;92.68;37.70;;;;;;;;;;5108154;28;20044;-90
2022/01/26 03:09:32;;;;;;;80.32;34.55;;;;;;;;;;5090650;28;20105;-89
2022/01/26 03:12:00;;;;;;;89.93;36.75;;;;;;;;;;5091412;28;20124;-90
2022/01/26 03:19:48;;;;;;;81.38;34.70;;;;;;;;;;5073611;28;19968;-87
2022/01/26 03:30:30;;;;;;;76.83;32.17;;;;;;;;;;5073276;28;19919;-90
2022/01/26 03:33:11;;;;;;;88.60;33.47;;;;;;;;;;5106929;28;20047;-89
2022/01/26 03:35:50;;;;;;;80.93;33.08;;;;;;;;;;5058213;28;20051;-89
2022/01/26 03:38:24;;;;;;;84.93;35.60;;;;;;;;;;5073055;28;20097;-89
2022/01/26 03:41:01;;;;;;;88.53;33.55;;;;;;;;;;5107341;28;20099;-89
2022/01/26 03:43:27;;;;;;;77.10;33.38;;;;;;;;;;5070225;28;20072;-90
2022/01/26 03:45:53;;;;;;;86.43;35.42;;;;;;;;;;5044919;28;20450;-90
2022/01/26 03:48:19;;;;;;;88.38;35.88;;;;;;;;;;5073358;28;20043;-90
2022/01/26 03:50:45;;;;;;;84.90;35.00;;;;;;;;;;5090759;28;20050;-90
2022/01/26 03:53:11;;;;;;;78.45;33.55;;;;;;;;;;5074238;28;20044;-90
2022/01/26 03:55:38;;;;;;;86.32;37.03;;;;;;;;;;5056771;28;20044;-89
2022/01/26 03:58:04;;;;;;;84.80;35.47;;;;;;;;;;5089679;28;20089;-89
2022/01/26 04:00:30;;;;;;;83.53;36.92;;;;;;;;;;5106766;28;20044;-90
2022/01/26 04:02:56;;;;;;;82.32;33.45;;;;;;;;;;5073302;28;20559;-90
2022/01/26 04:05:23;;;;;;;84.25;34.42;;;;;;;;;;5073562;28;20060;-90
2022/01/26 04:07:55;;;;;;;81.72;34.63;;;;;;;;;;5107550;28;20082;-91
2022/01/26 04:10:42;;;;;;;87.85;35.58;;;;;;;;;;5055650;28;20097;-89
2022/01/26 04:13:08;;;;;;;81.82;34.20;;;;;;;;;;5057260;28;20552;-90
2022/01/26 04:15:35;;;;;;;84.63;34.60;;;;;;;;;;5090221;28;20606;-90
2022/01/26 04:18:08;;;;;;;83.57;35.95;;;;;;;;;;5076464;28;20088;-90
2022/01/26 04:20:39;;;;;;;82.47;34.55;;;;;;;;;;5089061;28;20510;-90
2022/01/26 04:23:12;;;;;;;79.40;32.83;;;;;;;;;;5100523;28;20044;-91
2022/01/26 04:25:40;;;;;;;78.20;33.50;;;;;;;;;;5086400;28;20044;-90
2022/01/26 04:28:11;;;;;;;79.25;32.83;;;;;;;;;;5068227;28;20048;-90
2022/01/26 04:30:38;;;;;;;86.53;36.88;;;;;;;;;;5069595;28;20105;-90
2022/01/26 04:33:05;;;;;;;80.68;35.08;;;;;;;;;;5043646;28;20079;-90
2022/01/26 04:35:32;;;;;;;79.60;33.00;;;;;;;;;;5077500;28;20040;-91
2022/01/26 04:43:49;;;;;;;81.18;37.13;;;;;;;;;;5034119;28;20036;-91
2022/01/26 04:46:15;;;;;;;83.88;33.67;;;;;;;;;;5070537;28;20048;-91
2022/01/26 04:48:42;;;;;;;79.43;33.80;;;;;;;;;;5086262;28;20324;-90
2022/01/26 04:51:08;;;;;;;88.65;34.92;;;;;;;;;;5096764;28;20101;-91
2022/01/26 04:53:34;;;;;;;80.03;34.20;;;;;;;;;;5106584;28;20050;-91
2022/01/26 04:56:00;;;;;;;80.80;34.03;;;;;;;;;;5086660;28;20076;-90
2022/01/26 04:58:26;;;;;;;79.38;35.78;;;;;;;;;;5042360;28;20039;-90
2022/01/26 05:00:52;;;;;;;83.95;34.58;;;;;;;;;;5045921;28;20409;-90
2022/01/26 05:03:19;;;;;;;73.88;32.67;;;;;;;;;;5065895;28;20043;-90
2022/01/26 05:05:45;;;;;;;75.72;32.28;;;;;;;;;;5055347;28;20082;-89
2022/01/26 05:08:11;;;;;;;76.13;33.58;;;;;;;;;;5061670;28;20123;-90
2022/01/26 05:10:41;;;;;;;79.68;33.45;;;;;;;;;;5045884;28;20135;-90
2022/01/26 05:13:10;;;;;;;72.63;32.58;;;;;;;;;;5059232;28;20054;-90
2022/01/26 05:15:36;;;;;;;72.22;30.25;;;;;;;;;;5049392;28;20475;-90
2022/01/26 05:18:02;;;;;;;75.53;32.33;;;;;;;;;;5037215;28;20113;-90
2022/01/26 05:20:29;;;;;;;73.60;31.98;;;;;;;;;;5035450;28;20079;-88
2022/01/26 05:22:55;;;;;;;70.97;31.42;;;;;;;;;;5051861;28;20044;-90
2022/01/26 05:25:21;;;;;;;79.15;33.25;;;;;;;;;;5051357;28;20127;-90
2022/01/26 05:27:47;;;;;;;76.70;32.72;;;;;;;;;;5051318;28;20049;-90
2022/01/26 05:30:13;;;;;;;76.30;32.28;;;;;;;;;;5052114;28;20131;-89
2022/01/26 05:32:49;;;;;;;70.82;30.77;;;;;;;;;;5052184;28;20382;-90
2022/01/26 05:35:15;;;;;;;67.35;30.90;;;;;;;;;;5034873;28;20051;-90
2022/01/26 05:37:41;;;;;;;72.07;30.98;;;;;;;;;;5050985;28;20041;-89
2022/01/26 05:40:08;;;;;;;69.93;29.70;;;;;;;;;;5051271;28;20058;-90
2022/01/26 05:42:36;;;;;;;68.80;28.98;;;;;;;;;;5051264;28;20040;-90
2022/01/26 05:45:05;;;;;;;73.65;31.00;;;;;;;;;;5051507;28;20044;-90
2022/01/26 05:47:33;;;;;;;72.68;31.35;;;;;;;;;;5034454;28;20045;-90
2022/01/26 05:50:00;;;;;;;66.63;30.27;;;;;;;;;;5067583;28;20086;-89
2022/01/26 05:52:26;;;;;;;65.00;28.98;;;;;;;;;;5051179;28;20474;-90
2022/01/26 05:54:53;;;;;;;67.95;29.65;;;;;;;;;;5034433;28;20048;-91
2022/01/26 05:57:19;;;;;;;71.57;29.52;;;;;;;;;;5051045;28;20050;-90
2022/01/26 05:59:45;;;;;;;69.85;29.13;;;;;;;;;;5034614;28;20037;-91
2022/01/26 06:02:11;;;;;;;67.72;28.35;;;;;;;;;;5034664;28;20093;-90
2022/01/26 06:04:37;;;;;;;64.90;28.77;;;;;;;;;;5061712;28;20101;-90
2022/01/26 06:07:04;;;;;;;60.00;27.33;;;;;;;;;;5050788;28;20123;-91
2022/01/26 06:09:30;;;;;;;67.93;29.80;;;;;;;;;;5067273;28;20048;-90
2022/01/26 06:12:09;;;;;;;66.78;28.55;;;;;;;;;;5051282;28;20040;-90
2022/01/26 06:14:35;;;;;;;64.72;27.73;;;;;;;;;;5066929;28;20094;-90
2022/01/26 06:17:02;;;;;;;60.97;28.42;;;;;;;;;;5074214;28;20323;-91
2022/01/26 06:19:28;;;;;;;56.40;26.23;;;;;;;;;;5053486;28;20036;-89
2022/01/26 06:21:54;;;;;;;64.43;25.88;;;;;;;;;;5071419;28;20032;-89
2022/01/26 06:24:20;;;;;;;65.50;27.75;;;;;;;;;;5062344;28;20035;-90
2022/01/26 06:26:46;;;;;;;56.78;26.27;;;;;;;;;;5075352;28;20033;-90
2022/01/26 06:29:13;;;;;;;65.13;28.73;;;;;;;;;;5076239;28;20459;-90
2022/01/26 06:31:41;;;;;;;62.97;28.42;;;;;;;;;;5080482;28;20035;-89
2022/01/26 06:34:10;;;;;;;61.97;26.38;;;;;;;;;;5089458;28;20074;-90
2022/01/26 06:36:37;;;;;;;61.08;27.10;;;;;;;;;;5081351;28;20403;-89
2022/01/26 06:39:04;;;;;;;60.15;28.77;;;;;;;;;;5094173;28;20056;-90
2022/01/26 06:41:30;;;;;;;60.42;27.92;;;;;;;;;;5105124;28;20051;-90
2022/01/26 06:44:17;;;;;;;60.28;26.65;;;;;;;;;;5102502;28;20040;-90
2022/01/26 06:46:58;;;;;;;56.28;25.65;;;;;;;;;;5084369;28;20036;-90
2022/01/26 06:51:52;;;;;;;62.30;27.33;;;;;;;;;;5096590;28;20088;-92
2022/01/26 06:54:18;;;;;;;62.25;26.33;;;;;;;;;;5094984;28;20032;-91
2022/01/26 06:56:45;;;;;;;61.30;28.45;;;;;;;;;;5094811;28;20055;-92
2022/01/26 06:59:11;;;;;;;55.15;26.92;;;;;;;;;;5071919;28;20057;-89
2022/01/26 07:01:41;;;;;;;59.67;27.40;;;;;;;;;;5091941;28;20112;-92
2022/01/26 07:04:11;;;;;;;62.20;27.98;;;;;;;;;;5096737;28;20122;-90
2022/01/26 07:06:37;;;;;;;59.30;27.58;;;;;;;;;;5094723;28;20046;-90
2022/01/26 07:09:03;;;;;;;59.25;26.20;;;;;;;;;;5089683;28;20044;-89
2022/01/26 07:11:31;;;;;;;58.83;25.95;;;;;;;;;;5077941;28;20075;-89
2022/01/26 07:13:59;;;;;;;58.88;27.20;;;;;;;;;;5101323;28;20416;-90
2022/01/26 07:21:58;;;;;;;59.33;26.70;;;;;;;;;;5086290;28;20159;-89
2022/01/26 07:24:24;;;;;;;63.92;28.42;;;;;;;;;;5104133;28;20078;-90
2022/01/26 07:26:53;;;;;;;62.17;29.52;;;;;;;;;;5110250;28;20193;-91
2022/01/26 07:29:23;;;;;;;66.28;28.88;;;;;;;;;;5077627;28;20109;-91
2022/01/26 07:31:50;;;;;;;62.75;28.98;;;;;;;;;;5083750;28;20055;-91
2022/01/26 07:34:20;;;;;;;67.45;28.35;;;;;;;;;;5088627;28;20506;-90
2022/01/26 07:36:48;;;;;;;67.15;30.60;;;;;;;;;;5093429;28;20044;-90
2022/01/26 07:39:18;;;;;;;68.82;31.50;;;;;;;;;;5086069;28;20131;-89
2022/01/26 07:41:44;;;;;;;68.60;30.42;;;;;;;;;;5070665;28;20043;-91
2022/01/26 07:44:11;;;;;;;65.45;30.00;;;;;;;;;;5077926;28;20084;-90
2022/01/26 07:46:37;;;;;;;67.72;31.42;;;;;;;;;;5076687;28;20071;-90
2022/01/26 07:49:04;;;;;;;70.40;33.67;;;;;;;;;;5078203;28;20447;-89
2022/01/26 07:51:39;;;;;;;71.82;32.80;;;;;;;;;;5089150;28;20036;-88
2022/01/26 07:54:05;;;;;;;71.55;32.70;;;;;;;;;;5074100;28;20043;-91
2022/01/26 07:56:32;;;;;;;72.15;33.58;;;;;;;;;;5091446;28;20546;-92
2022/01/26 07:59:00;;;;;;;76.70;33.85;;;;;;;;;;5091764;28;20505;-92
2022/01/26 08:01:30;;;;;;;79.28;35.00;;;;;;;;;;5075570;28;20407;-92
2022/01/26 08:03:57;;;;;;;78.97;35.97;;;;;;;;;;5115447;27;20551;-89
2022/01/26 08:06:23;;;;;;;85.93;37.58;;;;;;;;;;5107919;28;20038;-91
2022/01/26 08:08:50;;;;;;;81.70;38.25;;;;;;;;;;5092015;28;20085;-89
2022/01/26 08:11:16;;;;;;;80.95;36.03;;;;;;;;;;5109994;28;20126;-90
2022/01/26 08:13:42;;;;;;;81.18;36.97;;;;;;;;;;5093717;28;20123;-91
2022/01/26 08:16:09;;;;;;;81.70;39.05;;;;;;;;;;5079247;28;20075;-91
2022/01/26 08:18:35;;;;;;;88.43;39.53;;;;;;;;;;5084240;28;20512;-88
2022/01/26 08:21:06;;;;;;;89.13;39.47;;;;;;;;;;5079702;28;20089;-88
2022/01/26 08:23:34;;;;;;;88.43;39.90;;;;;;;;;;5107445;27;20063;-90
2022/01/26 08:26:01;;;;;;;88.28;40.88;;;;;;;;;;5069949;28;20036;-90
2022/01/26 08:28:40;;;;;;;95.95;41.78;;;;;;;;;;5119681;27;20542;-90
2022/01/26 08:31:07;;;;;;;94.95;40.75;;;;;;;;;;5057144;28;20122;-91
2022/01/26 08:33:33;;;;;;;94.32;43.90;;;;;;;;;;5058078;28;20044;-91
2022/01/26 08:36:00;;;;;;;87.40;41.13;;;;;;;;;;5074904;28;20042;-89
2022/01/26 08:38:26;;;;;;;105.70;44.97;;;;;;;;;;5067193;28;20499;-90
2022/01/26 08:40:52;;;;;;;101.22;42.80;;;;;;;;;;5056724;28;20036;-90
2022/01/26 08:43:19;;;;;;;99.35;44.92;;;;;;;;;;5061699;28;20028;-90
2022/01/26 08:45:45;;;;;;;96.45;43.75;;;;;;;;;;5089030;28;20042;-90
2022/01/26 08:48:12;;;;;;;98.13;46.10;;;;;;;;;;5089566;28;20036;-91
2022/01/26 08:50:38;;;;;;;102.88;47.50;;;;;;;;;;5075197;28;20118;-91
2022/01/26 08:53:05;;;;;;;107.63;44.75;;;;;;;;;;5090322;28;20157;-90
2022/01/26 08:55:33;;;;;;;100.88;45.25;;;;;;;;;;5083903;28;20039;-89
2022/01/26 08:57:59;;;;;;;104.45;46.08;;;;;;;;;;5076040;28;20059;-91
2022/01/26 09:00:26;;;;;;;104.65;47.03;;;;;;;;;;5089259;28;20170;-91
2022/01/26 09:02:53;;;;;;;103.10;47.03;;;;;;;;;;5086884;28;20554;-91
2022/01/26 09:05:20;;;;;;;105.97;45.83;;;;;;;;;;5079153;28;20124;-90
2022/01/26 09:07:49;;;;;;;100.13;45.85;;;;;;;;;;5107234;28;20127;-91
2022/01/26 09:10:15;;;;;;;104.35;46.33;;;;;;;;;;5107838;27;20036;-92
2022/01/26 09:12:44;;;;;;;115.03;48.97;;;;;;;;;;5084998;28;20047;-91
2022/01/26 09:15:11;;;;;;;103.65;46.85;;;;;;;;;;5074620;28;20062;-91
2022/01/26 09:17:38;;;;;;;112.40;48.63;;;;;;;;;;5089550;28;20375;-91
2022/01/26 09:20:07;;;;;;;109.45;47.47;;;;;;;;;;5073804;28;20036;-91
2022/01/26 09:22:34;;;;;;;105.78;47.35;;;;;;;;;;5089497;28;20044;-91
2022/01/26 09:25:00;;;;;;;105.32;49.05;;;;;;;;;;5103668;28;20090;-91
2022/01/26 09:27:26;;;;;;;120.55;49.25;;;;;;;;;;5078829;28;20127;-91
2022/01/26 09:29:53;;;;;;;112.47;51.42;;;;;;;;;;5125695;27;20127;-91
2022/01/26 09:32:19;;;;;;;106.45;48.03;;;;;;;;;;5083576;28;20055;-89
2022/01/26 09:34:45;;;;;;;104.53;46.35;;;;;;;;;;5081602;28;20035;-91
2022/01/26 09:37:13;;;;;;;108.82;50.40;;;;;;;;;;5071520;28;20040;-90
2022/01/26 09:39:40;;;;;;;103.45;47.15;;;;;;;;;;5108155;28;20043;-90
2022/01/26 09:42:06;;;;;;;111.55;49.80;;;;;;;;;;5081416;28;20036;-91
2022/01/26 09:44:33;;;;;;;107.40;49.22;;;;;;;;;;5072346;28;20395;-91
2022/01/26 09:46:59;;;;;;;105.00;47.63;;;;;;;;;;5086813;28;20434;-93
2022/01/26 09:49:32;;;;;;;105.38;47.67;;;;;;;;;;5079846;28;20118;-89
2022/01/26 09:52:01;;;;;;;98.20;45.13;;;;;;;;;;5106780;28;20395;-90
2022/01/26 09:54:30;;;;;;;101.30;46.78;;;;;;;;;;5081703;28;20315;-90
2022/01/26 09:57:01;;;;;;;104.28;47.47;;;;;;;;;;5093875;28;20085;-90
2022/01/26 09:59:27;;;;;;;96.75;46.50;;;;;;;;;;5101587;28;20576;-90
2022/01/26 10:01:54;;;;;;;101.57;47.45;;;;;;;;;;5073560;28;20058;-89
2022/01/26 10:04:26;;;;;;;98.10;47.13;;;;;;;;;;5122882;27;20487;-91
2022/01/26 10:07:06;;;;;;;100.68;46.38;;;;;;;;;;5097029;27;20028;-90
2022/01/26 10:17:40;;;;;;;95.95;46.05;;;;;;;;;;5087831;28;20043;-89
2022/01/26 10:20:09;;;;;;;97.63;46.75;;;;;;;;;;5075677;28;20119;-89
2022/01/26 10:22:36;;;;;;;95.00;44.50;;;;;;;;;;5071458;28;20032;-90
2022/01/26 10:25:04;;;;;;;93.90;44.03;;;;;;;;;;5073883;28;20108;-91
2022/01/26 10:27:37;;;;;;;96.07;42.78;;;;;;;;;;5081304;28;20553;-90
2022/01/26 10:30:06;;;;;;;103.32;45.50;;;;;;;;;;5109012;28;20044;-90
2022/01/26 10:32:36;;;;;;;93.72;43.97;;;;;;;;;;5107964;28;20035;-90
2022/01/26 10:35:05;;;;;;;94.60;44.05;;;;;;;;;;5087421;28;20036;-89
2022/01/26 10:37:31;;;;;;;97.13;44.13;;;;;;;;;;5097924;28;20040;-90
2022/01/26 10:40:13;;;;;;;95.15;48.38;;;;;;;;;;5076319;28;20043;-91
2022/01/26 10:42:39;;;;;;;95.22;48.20;;;;;;;;;;5069714;28;20037;-91
2022/01/26 10:45:14;;;;;;;96.38;47.83;;;;;;;;;;5071152;28;20286;-89
2022/01/26 10:47:45;;;;;;;95.38;44.70;;;;;;;;;;5074814;28;20438;-90
2022/01/26 10:50:44;;;;;;;101.38;46.72;;;;;;;;;;5102240;28;20089;-90
2022/01/26 10:53:12;;;;;;;101.65;48.65;;;;;;;;;;5104414;28;20555;-91
2022/01/26 10:55:47;;;;;;;99.72;44.80;;;;;;;;;;5106547;28;20402;-91
2022/01/26 10:58:16;;;;;;;95.70;44.25;;;;;;;;;;5083687;28;20047;-90
2022/01/26 11:00:43;;;;;;;93.07;44.33;;;;;;;;;;5087871;28;20043;-90
2022/01/26 11:03:09;;;;;;;96.45;45.22;;;;;;;;;;5103820;28;20040;-90
2022/01/26 11:05:35;;;;;;;91.50;43.97;;;;;;;;;;5092579;28;20095;-90
2022/01/26 11:08:02;;;;;;;90.88;44.70;;;;;;;;;;5087799;28;20044;-91
2022/01/26 11:10:37;;;;;;;91.40;43.17;;;;;;;;;;5104627;28;20134;-90
2022/01/26 11:13:05;;;;;;;88.65;42.92;;;;;;;;;;5087461;28;20083;-90
2022/01/26 11:15:32;;;;;;;113.30;43.28;;;;;;;;;;5102523;28;20119;-90
2022/01/26 11:18:08;;;;;;;90.53;42.28;;;;;;;;;;5086147;28;20050;-90
2022/01/26 11:20:45;;;;;;;93.57;42.38;;;;;;;;;;5081806;28;20040;-91
2022/01/26 11:23:11;;;;;;;92.35;42.47;;;;;;;;;;5080606;28;20533;-91
2022/01/26 11:25:42;;;;;;;81.45;39.95;;;;;;;;;;5097988;28;20432;-93
2022/01/26 11:28:38;;;;;;;90.80;42.00;;;;;;;;;;5064242;28;20040;-90
2022/01/26 11:31:14;;;;;;;92.22;41.70;;;;;;;;;;5080499;28;20051;-91
2022/01/26 11:33:41;;;;;;;94.00;42.88;;;;;;;;;;5082152;28;20047;-91
2022/01/26 11:36:08;;;;;;;86.00;40.80;;;;;;;;;;5088435;28;20144;-90
2022/01/26 11:46:56;;;;;;;88.03;40.13;;;;;;;;;;5131067;27;20391;-90
2022/01/26 11:49:26;;;;;;;81.97;38.63;;;;;;;;;;5123131;27;20037;-91
2022/01/26 11:51:56;;;;;;;95.45;40.95;;;;;;;;;;5082224;28;20032;-90
2022/01/26 11:54:24;;;;;;;82.28;37.80;;;;;;;;;;5096720;28;20039;-90
2022/01/26 11:56:58;;;;;;;87.20;40.72;;;;;;;;;;5092588;28;20049;-90
2022/01/26 11:59:27;;;;;;;88.60;39.00;;;;;;;;;;5113543;27;20391;-90
2022/01/26 12:02:04;;;;;;;85.63;40.17;;;;;;;;;;5100853;28;20115;-91
2022/01/26 12:04:36;;;;;;;93.07;41.33;;;;;;;;;;5100321;28;20126;-89
2022/01/26 12:07:23;;;;;;;87.75;39.47;;;;;;;;;;5094164;28;20499;-91
2022/01/26 12:09:51;;;;;;;87.18;38.75;;;;;;;;;;5099798;28;20478;-90
2022/01/26 12:12:22;;;;;;;83.25;39.17;;;;;;;;;;5106744;28;20094;-90
2022/01/26 12:15:03;;;;;;;80.80;39.83;;;;;;;;;;5070456;28;20468;-91
2022/01/26 12:17:34;;;;;;;86.35;39.13;;;;;;;;;;5082672;28;20127;-91
2022/01/26 12:32:04;;;;;;;89.57;39.55;;;;;;;;;;5056874;28;20036;-92
2022/01/26 12:35:01;;;;;;;88.00;35.93;;;;;;;;;;5090469;28;20016;-90
2022/01/26 12:45:15;;;;;;;74.22;34.10;;;;;;;;;;5058579;28;20040;-91
2022/01/26 12:47:43;;;;;;;75.10;34.95;;;;;;;;;;5092161;28;20562;-92
2022/01/26 12:50:09;;;;;;;74.20;33.45;;;;;;;;;;5058934;28;20530;-91
2022/01/26 12:52:36;;;;;;;73.40;35.58;;;;;;;;;;5064459;28;20040;-91
2022/01/26 12:55:03;;;;;;;74.63;34.15;;;;;;;;;;5075659;28;20044;-88
2022/01/26 12:57:29;;;;;;;73.82;34.20;;;;;;;;;;5109068;28;20048;-91
2022/01/26 13:00:02;;;;;;;71.35;33.50;;;;;;;;;;5110099;28;20043;-90
2022/01/26 13:02:28;;;;;;;74.47;34.42;;;;;;;;;;5081582;28;20449;-89
2022/01/26 13:05:01;;;;;;;73.70;32.47;;;;;;;;;;5099436;28;20038;-89
2022/01/26 13:07:28;;;;;;;69.50;33.05;;;;;;;;;;5089011;28;20100;-89
2022/01/26 13:09:54;;;;;;;71.95;32.70;;;;;;;;;;5058748;28;20036;-93
2022/01/26 13:12:30;;;;;;;72.38;34.00;;;;;;;;;;5078109;28;20071;-90
2022/01/26 13:15:12;;;;;;;75.88;34.60;;;;;;;;;;5105549;28;20047;-91
2022/01/26 13:17:44;;;;;;;80.45;34.50;;;;;;;;;;5071167;28;20473;-89
2022/01/26 13:39:11;;;;;;;74.05;33.22;;;;;;;;;;5081355;28;20050;-88
2022/01/26 13:42:13;;;;;;;73.00;31.58;;;;;;;;;;5068785;28;20044;-90
2022/01/26 13:50:29;;;;;;;65.22;31.65;;;;;;;;;;5077808;28;20130;-90
2022/01/26 13:53:09;;;;;;;69.32;32.40;;;;;;;;;;5072226;28;20097;-91
2022/01/26 13:55:59;;;;;;;67.20;32.45;;;;;;;;;;5060972;28;20549;-91
2022/01/26 13:58:48;;;;;;;73.65;31.58;;;;;;;;;;5061303;28;20047;-88
2022/01/26 14:01:20;;;;;;;64.90;32.28;;;;;;;;;;5073069;28;20035;-89
2022/01/26 14:03:49;;;;;;;70.13;33.17;;;;;;;;;;5064835;28;20040;-89
2022/01/26 14:06:15;;;;;;;67.88;32.78;;;;;;;;;;5079950;28;20051;-92
2022/01/26 14:08:42;;;;;;;69.18;32.97;;;;;;;;;;5109132;27;20071;-91
2022/01/26 14:11:08;;;;;;;67.85;33.65;;;;;;;;;;5106063;27;20047;-89
2022/01/26 14:13:36;;;;;;;78.40;37.13;;;;;;;;;;5117531;27;20036;-90
2022/01/26 14:16:04;;;;;;;74.40;35.10;;;;;;;;;;5115901;27;20127;-91
2022/01/26 14:18:44;;;;;;;71.32;33.63;;;;;;;;;;5052269;28;20048;-90
2022/01/26 14:26:19;;;;;;;67.57;32.30;;;;;;;;;;5069613;28;20071;-90
2022/01/26 14:28:45;;;;;;;78.95;34.65;;;;;;;;;;5071350;28;20407;-89
2022/01/26 15:09:33;;;;;;;61.13;30.30;;;;;;;;;;5074250;28;20054;-90
2022/01/26 15:21:40;;;;;;;64.95;32.25;;;;;;;;;;5086880;28;20114;-89
2022/01/26 15:42:30;;;;;;;67.13;29.97;;;;;;;;;;5080397;28;19945;-89
2022/01/26 15:50:23;;;;;;;59.55;29.40;;;;;;;;;;5078945;28;20491;-89
2022/01/26 15:52:56;;;;;;;69.75;32.75;;;;;;;;;;5084832;28;20293;-89
2022/01/26 16:06:42;;;;;;;65.78;30.40;;;;;;;;;;5110515;28;20040;-90
2022/01/26 16:20:08;;;;;;;62.75;31.25;;;;;;;;;;5085442;28;20096;-93
2022/01/26 18:49:32;;;;;;;49.42;26.55;;;;;;;;;;5117328;28;20574;-91
2022/01/26 18:51:59;;;;;;;48.67;25.95;;;;;;;;;;5083993;28;20031;-90
2022/01/26 18:54:30;;;;;;;50.60;25.65;;;;;;;;;;5058531;28;20043;-89
2022/01/26 18:56:57;;;;;;;50.70;26.20;;;;;;;;;;5076440;28;20035;-89
2022/01/26 18:59:24;;;;;;;50.17;26.17;;;;;;;;;;5082097;28;20041;-91
2022/01/26 19:01:52;;;;;;;50.15;24.85;;;;;;;;;;5075612;28;20046;-91
2022/01/26 19:04:24;;;;;;;48.70;27.13;;;;;;;;;;5097456;28;20111;-89
2022/01/26 19:06:52;;;;;;;47.50;24.67;;;;;;;;;;5070612;28;20032;-91
2022/01/26 19:09:22;;;;;;;44.30;25.65;;;;;;;;;;5108053;28;20376;-90
2022/01/26 19:11:49;;;;;;;51.95;25.58;;;;;;;;;;5110426;28;20044;-93
2022/01/26 19:14:15;;;;;;;45.55;24.13;;;;;;;;;;5106465;28;20039;-90
2022/01/26 19:16:47;;;;;;;48.03;23.55;;;;;;;;;;5067002;28;20419;-90
2022/01/26 19:19:27;;;;;;;49.53;23.67;;;;;;;;;;5065792;28;20115;-89
2022/01/26 19:27:43;;;;;;;44.00;23.02;;;;;;;;;;5076518;28;20531;-92
2022/01/26 19:32:59;;;;;;;46.47;23.17;;;;;;;;;;5071363;28;20495;-89
2022/01/26 19:41:57;;;;;;;42.67;23.88;;;;;;;;;;5074758;28;20411;-91
2022/01/26 19:54:36;;;;;;;42.20;20.58;;;;;;;;;;5064745;28;20055;-89
2022/01/26 19:57:03;;;;;;;38.90;20.80;;;;;;;;;;5080722;28;20044;-90
2022/01/26 19:59:29;;;;;;;35.65;20.10;;;;;;;;;;5091029;28;20111;-92
2022/01/26 20:01:56;;;;;;;37.58;20.02;;;;;;;;;;5091321;28;20506;-90
2022/01/26 20:04:22;;;;;;;37.67;20.35;;;;;;;;;;5069363;28;20110;-91
2022/01/26 20:06:49;;;;;;;41.17;19.92;;;;;;;;;;5069414;28;20055;-86
2022/01/26 20:09:30;;;;;;;38.55;20.90;;;;;;;;;;5069468;28;20540;-94
2022/01/26 20:11:59;;;;;;;41.28;20.67;;;;;;;;;;5064105;28;20042;-88
2022/01/26 20:14:32;;;;;;;37.95;20.48;;;;;;;;;;5077122;28;20128;-92
2022/01/26 20:17:08;;;;;;;43.72;22.70;;;;;;;;;;5093218;28;20055;-92
2022/01/26 20:19:34;;;;;;;44.90;20.38;;;;;;;;;;5084297;28;20031;-87
2022/01/26 20:22:02;;;;;;;39.20;21.60;;;;;;;;;;5066902;28;20395;-90
2022/01/26 20:24:28;;;;;;;40.92;21.77;;;;;;;;;;5083884;28;20036;-91
2022/01/26 20:26:55;;;;;;;40.10;22.60;;;;;;;;;;5085773;28;20096;-88
2022/01/26 20:29:26;;;;;;;42.53;21.67;;;;;;;;;;5086782;28;20123;-89
2022/01/26 20:31:53;;;;;;;42.45;21.52;;;;;;;;;;5081804;28;20092;-89
2022/01/26 20:34:19;;;;;;;45.42;23.73;;;;;;;;;;5075220;28;20036;-89
2022/01/26 20:36:45;;;;;;;45.03;23.00;;;;;;;;;;5069995;28;20486;-88
2022/01/26 20:39:11;;;;;;;44.45;22.83;;;;;;;;;;5100665;28;20115;-89
2022/01/26 20:41:37;;;;;;;42.95;24.23;;;;;;;;;;5086559;28;20044;-90
2022/01/26 20:44:04;;;;;;;49.35;24.05;;;;;;;;;;5067126;28;20455;-92
2022/01/26 20:46:31;;;;;;;39.55;23.42;;;;;;;;;;5071718;28;20122;-90
2022/01/26 20:48:57;;;;;;;42.88;23.88;;;;;;;;;;5080106;28;20089;-89
2022/01/26 20:51:23;;;;;;;42.92;24.55;;;;;;;;;;5065760;28;20045;-90
2022/01/26 20:53:49;;;;;;;49.28;26.30;;;;;;;;;;5081869;28;20544;-91
2022/01/26 20:56:16;;;;;;;53.00;27.50;;;;;;;;;;5081793;28;20093;-89
2022/01/26 20:58:44;;;;;;;49.75;28.50;;;;;;;;;;5079601;28;20111;-93
2022/01/26 21:01:10;;;;;;;54.72;28.83;;;;;;;;;;5081832;28;20483;-89
2022/01/26 21:03:37;;;;;;;50.88;29.17;;;;;;;;;;5076219;28;20511;-91
2022/01/26 21:06:03;;;;;;;53.90;29.88;;;;;;;;;;5090049;28;20039;-92
2022/01/26 21:08:30;;;;;;;56.22;30.88;;;;;;;;;;5077573;28;20032;-92
2022/01/26 21:10:56;;;;;;;57.40;31.38;;;;;;;;;;5060048;28;20122;-90
2022/01/26 21:13:22;;;;;;;54.40;31.02;;;;;;;;;;5079600;28;20037;-88
2022/01/26 21:15:49;;;;;;;56.20;29.98;;;;;;;;;;5060245;28;20539;-93
2022/01/26 21:18:17;;;;;;;54.50;30.80;;;;;;;;;;5078576;28;20055;-92
2022/01/26 21:20:44;;;;;;;54.03;31.50;;;;;;;;;;5082357;28;20075;-93
2022/01/26 21:23:10;;;;;;;55.53;31.60;;;;;;;;;;5060837;28;20050;-92
2022/01/26 21:25:37;;;;;;;56.40;31.33;;;;;;;;;;5043702;28;20029;-93
2022/01/26 21:28:04;;;;;;;55.78;30.40;;;;;;;;;;5081190;28;20058;-92
2022/01/26 21:30:31;;;;;;;52.72;29.20;;;;;;;;;;5078800;28;20043;-91
2022/01/26 21:32:57;;;;;;;57.55;29.75;;;;;;;;;;5083195;28;20040;-93